createdAt,value
2018-06-01T00:01:03.534Z,0.55
2018-06-01T00:03:06.760Z,0.90
2018-06-01T00:05:10.676Z,0.70
2018-06-01T00:07:13.871Z,0.90
2018-06-01T00:09:17.061Z,0.60
2018-06-01T00:11:20.259Z,0.43
2018-06-01T00:13:23.449Z,0.50
2018-06-01T00:15:26.627Z,0.60
2018-06-01T00:17:29.810Z,0.63
2018-06-01T00:19:33.403Z,0.45
2018-06-01T00:21:36.603Z,0.60
2018-06-01T00:23:39.803Z,0.50
2018-06-01T00:25:43.018Z,0.60
2018-06-01T00:27:46.216Z,0.60
2018-06-01T00:29:49.392Z,0.62
2018-06-01T00:31:54.330Z,0.70
2018-06-01T00:33:57.499Z,0.77
2018-06-01T00:36:01.067Z,0.70
2018-06-01T00:38:05.156Z,0.57
2018-06-01T00:40:08.321Z,0.40
2018-06-01T00:42:12.270Z,0.33
2018-06-01T00:44:15.453Z,0.87
2018-06-01T00:46:19.381Z,0.60
2018-06-01T00:48:23.352Z,0.62
2018-06-01T00:50:26.512Z,0.60
2018-06-01T00:52:30.439Z,0.40
2018-06-01T00:54:33.823Z,0.60
2018-06-01T00:56:36.985Z,0.60
2018-06-01T00:58:40.185Z,0.60
2018-06-01T01:00:43.362Z,0.93
2018-06-01T01:02:47.309Z,0.60
2018-06-01T01:04:51.580Z,0.67
2018-06-01T01:06:55.429Z,0.77
2018-06-01T01:08:59.316Z,0.60
2018-06-01T01:11:04.810Z,0.80
2018-06-01T01:13:08.322Z,0.50
2018-06-01T01:15:11.484Z,0.70
2018-06-01T01:17:14.676Z,0.70
2018-06-01T01:19:20.453Z,0.80
2018-06-01T01:21:25.095Z,0.70
2018-06-01T01:23:29.200Z,0.57
2018-06-01T01:25:35.110Z,0.60
2018-06-01T01:27:38.494Z,0.70
2018-06-01T01:29:42.539Z,0.70
2018-06-01T01:31:46.496Z,0.43
2018-06-01T01:33:50.565Z,0.62
2018-06-01T01:35:55.849Z,1.00
2018-06-01T01:37:59.151Z,2.60
2018-06-01T01:40:03.268Z,3.10
2018-06-01T01:42:07.257Z,1.33
2018-06-01T01:44:11.751Z,1.00
2018-06-01T01:46:15.044Z,0.77
2018-06-01T01:48:18.236Z,1.00
2018-06-01T01:50:21.552Z,0.70
2018-06-01T01:52:24.746Z,0.73
2018-06-01T01:54:28.951Z,0.80
2018-06-01T01:56:33.054Z,0.80
2018-06-01T01:58:36.925Z,0.40
2018-06-01T02:00:40.145Z,0.52
2018-06-01T02:02:43.307Z,0.73
2018-06-01T02:04:46.498Z,0.60
2018-06-01T02:06:50.425Z,0.80
2018-06-01T02:08:56.054Z,0.50
2018-06-01T02:11:00.032Z,0.50
2018-06-01T02:13:03.191Z,0.77
2018-06-01T02:15:07.256Z,0.80
2018-06-01T02:17:10.512Z,0.90
2018-06-01T02:19:15.311Z,0.70
2018-06-01T02:21:20.876Z,0.93
2018-06-01T02:23:24.233Z,1.10
2018-06-01T02:25:28.188Z,0.70
2018-06-01T02:27:31.369Z,0.40
2018-06-01T02:29:34.699Z,0.70
2018-06-01T02:31:37.862Z,0.70
2018-06-01T02:33:41.028Z,2.67
2018-06-01T02:35:44.255Z,0.98
2018-06-01T02:37:48.179Z,1.50
2018-06-01T02:39:52.135Z,1.00
2018-06-01T02:41:55.300Z,0.80
2018-06-01T02:43:58.465Z,0.73
2018-06-01T02:46:01.668Z,0.90
2018-06-01T02:48:04.834Z,0.88
2018-06-01T02:50:08.809Z,0.83
2018-06-01T02:52:11.968Z,1.00
2018-06-01T02:54:15.928Z,0.40
2018-06-01T02:56:19.108Z,0.50
2018-06-01T02:58:23.034Z,0.57
2018-06-01T03:00:26.990Z,0.63
2018-06-01T03:02:30.154Z,0.60
2018-06-01T03:04:33.387Z,0.57
2018-06-01T03:06:37.343Z,0.83
2018-06-01T03:08:40.521Z,0.40
2018-06-01T03:10:44.467Z,0.40
2018-06-01T03:12:47.643Z,0.80
2018-06-01T03:14:51.914Z,0.83
2018-06-01T03:16:55.118Z,0.70
2018-06-01T03:18:58.276Z,0.60
2018-06-01T03:21:01.482Z,0.50
2018-06-01T03:23:04.663Z,0.50
2018-06-01T03:25:07.858Z,1.90
2018-06-01T03:27:11.010Z,0.80
2018-06-01T03:29:15.160Z,0.60
2018-06-01T03:31:19.121Z,0.70
2018-06-01T03:33:22.291Z,0.52
2018-06-01T03:35:26.244Z,0.70
2018-06-01T03:37:29.439Z,0.50
2018-06-01T03:39:33.396Z,0.40
2018-06-01T03:41:36.600Z,0.43
2018-06-01T03:43:39.780Z,0.97
2018-06-01T03:45:43.743Z,0.97
2018-06-01T03:47:46.911Z,0.80
2018-06-01T03:49:50.879Z,0.77
2018-06-01T03:51:54.050Z,0.70
2018-06-01T03:53:57.990Z,0.80
2018-06-01T03:56:01.180Z,0.50
2018-06-01T03:58:05.119Z,0.70
2018-06-01T04:00:09.138Z,0.85
2018-06-01T04:02:12.842Z,0.60
2018-06-01T04:04:16.794Z,0.50
2018-06-01T04:06:19.969Z,0.73
2018-06-01T04:08:24.843Z,0.65
2018-06-01T04:10:28.180Z,0.40
2018-06-01T04:12:32.193Z,0.55
2018-06-01T04:14:35.673Z,0.98
2018-06-01T04:16:38.852Z,0.50
2018-06-01T04:18:42.052Z,0.60
2018-06-01T04:20:45.261Z,0.70
2018-06-01T04:22:48.415Z,2.73
2018-06-01T04:24:51.588Z,1.23
2018-06-01T04:26:55.732Z,2.25
2018-06-01T04:28:58.914Z,1.20
2018-06-01T04:31:02.128Z,0.63
2018-06-01T04:33:05.275Z,2.72
2018-06-01T04:35:08.481Z,1.50
2018-06-01T04:37:11.631Z,0.68
2018-06-01T04:39:15.757Z,0.47
2018-06-01T04:41:18.987Z,0.63
2018-06-01T04:43:22.173Z,0.47
2018-06-01T04:45:25.370Z,2.33
2018-06-01T04:47:29.315Z,1.23
2018-06-01T04:49:32.508Z,0.90
2018-06-01T04:51:35.991Z,3.45
2018-06-01T04:53:39.147Z,1.37
2018-06-01T04:55:42.332Z,1.60
2018-06-01T04:57:46.307Z,1.37
2018-06-01T04:59:49.774Z,4.72
2018-06-01T05:01:53.729Z,3.27
2018-06-01T05:03:56.923Z,4.07
2018-06-01T05:06:00.143Z,4.10
2018-06-01T05:08:03.330Z,2.30
2018-06-01T05:10:07.308Z,3.77
2018-06-01T05:12:11.236Z,1.80
2018-06-01T05:14:14.391Z,6.77
2018-06-01T05:16:18.367Z,3.77
2018-06-01T05:18:21.536Z,1.70
2018-06-01T05:20:24.750Z,1.55
2018-06-01T05:22:27.959Z,1.75
2018-06-01T05:24:31.142Z,2.40
2018-06-01T05:26:36.287Z,1.67
2018-06-01T05:28:40.442Z,0.70
2018-06-01T05:30:44.467Z,1.10
2018-06-01T05:32:48.386Z,1.43
2018-06-01T05:34:52.318Z,2.17
2018-06-01T05:36:57.145Z,1.63
2018-06-01T05:39:01.072Z,1.00
2018-06-01T05:41:05.028Z,0.80
2018-06-01T05:43:08.189Z,0.70
2018-06-01T05:45:11.345Z,0.70
2018-06-01T05:47:14.574Z,0.77
2018-06-01T05:49:17.797Z,0.77
2018-06-01T05:51:20.976Z,0.87
2018-06-01T05:53:24.159Z,0.95
2018-06-01T05:55:28.112Z,2.53
2018-06-01T05:57:31.323Z,1.00
2018-06-01T05:59:34.481Z,0.90
2018-06-01T06:01:37.695Z,0.70
2018-06-01T06:03:40.867Z,1.20
2018-06-01T06:05:44.043Z,0.77
2018-06-01T06:07:47.243Z,0.70
2018-06-01T06:09:51.167Z,0.70
2018-06-01T06:11:54.370Z,1.77
2018-06-01T06:13:58.299Z,3.20
2018-06-01T06:16:02.259Z,1.43
2018-06-01T06:18:05.447Z,1.87
2018-06-01T06:20:08.631Z,0.93
2018-06-01T06:22:12.592Z,2.40
2018-06-01T06:24:15.772Z,2.10
2018-06-01T06:26:20.855Z,3.70
2018-06-01T06:28:24.015Z,2.00
2018-06-01T06:30:27.205Z,2.40
2018-06-01T06:32:30.848Z,1.43
2018-06-01T06:34:34.094Z,2.47
2018-06-01T06:36:37.312Z,2.00
2018-06-01T06:38:40.731Z,1.80
2018-06-01T06:40:43.939Z,1.20
2018-06-01T06:42:47.120Z,1.93
2018-06-01T06:44:51.042Z,1.10
2018-06-01T06:46:54.265Z,3.70
2018-06-01T06:48:57.460Z,3.92
2018-06-01T06:51:00.952Z,2.35
2018-06-01T06:53:04.149Z,2.93
2018-06-01T06:55:07.308Z,2.37
2018-06-01T06:57:10.511Z,2.67
2018-06-01T06:59:13.666Z,5.37
2018-06-01T07:01:16.883Z,2.40
2018-06-01T07:03:20.988Z,2.25
2018-06-01T07:05:24.186Z,2.73
2018-06-01T07:07:27.380Z,1.50
2018-06-01T07:09:30.573Z,4.22
2018-06-01T07:11:34.571Z,3.70
2018-06-01T07:13:37.760Z,3.20
2018-06-01T07:15:41.112Z,2.17
2018-06-01T07:17:45.080Z,1.50
2018-06-01T07:19:48.255Z,3.35
2018-06-01T07:21:51.456Z,5.00
2018-06-01T07:23:55.417Z,5.00
2018-06-01T07:25:58.611Z,5.22
2018-06-01T07:28:01.799Z,5.90
2018-06-01T07:30:05.752Z,2.70
2018-06-01T07:32:08.959Z,2.00
2018-06-01T07:34:12.159Z,1.00
2018-06-01T07:36:15.322Z,0.95
2018-06-01T07:38:18.623Z,1.43
2018-06-01T07:40:21.771Z,5.63
2018-06-01T07:42:25.736Z,6.13
2018-06-01T07:44:28.902Z,6.53
2018-06-01T07:46:32.861Z,6.07
2018-06-01T07:48:36.084Z,3.05
2018-06-01T07:50:39.254Z,2.47
2018-06-01T07:52:43.218Z,3.10
2018-06-01T07:54:46.389Z,2.60
2018-06-01T07:56:50.337Z,3.05
2018-06-01T07:58:53.536Z,5.67
2018-06-01T08:00:56.707Z,6.68
2018-06-01T08:02:59.922Z,6.77
2018-06-01T08:05:03.075Z,6.97
2018-06-01T08:07:06.233Z,4.47
2018-06-01T08:09:09.424Z,6.28
2018-06-01T08:11:12.603Z,2.07
2018-06-01T08:13:15.842Z,2.03
2018-06-01T08:15:19.018Z,1.73
2018-06-01T08:17:22.215Z,1.40
2018-06-01T08:19:25.412Z,1.63
2018-06-01T08:21:30.119Z,1.73
2018-06-01T08:23:33.434Z,1.27
2018-06-01T08:25:36.608Z,1.00
2018-06-01T08:27:39.787Z,1.10
2018-06-01T08:29:43.725Z,2.10
2018-06-01T08:31:46.896Z,1.27
2018-06-01T08:33:50.184Z,1.20
2018-06-01T08:35:53.357Z,0.90
2018-06-01T08:37:56.550Z,1.40
2018-06-01T08:40:01.621Z,5.30
2018-06-01T08:42:04.800Z,3.17
2018-06-01T08:44:08.755Z,5.87
2018-06-01T08:46:11.912Z,2.22
2018-06-01T08:48:15.098Z,2.30
2018-06-01T08:50:18.281Z,2.80
2018-06-01T08:52:22.697Z,3.60
2018-06-01T08:54:26.676Z,1.90
2018-06-01T08:56:29.840Z,2.58
2018-06-01T08:58:32.999Z,1.60
2018-06-01T09:00:36.212Z,4.00
2018-06-01T09:02:39.388Z,5.77
2018-06-01T09:04:42.571Z,2.10
2018-06-01T09:06:45.748Z,1.63
2018-06-01T09:08:49.067Z,2.08
2018-06-01T09:10:53.005Z,6.18
2018-06-01T09:12:56.935Z,3.00
2018-06-01T09:15:00.139Z,8.67
2018-06-01T09:17:04.078Z,4.10
2018-06-01T09:19:07.279Z,5.20
2018-06-01T09:21:11.204Z,2.57
2018-06-01T09:23:14.400Z,1.13
2018-06-01T09:25:18.498Z,2.53
2018-06-01T09:27:22.312Z,7.87
2018-06-01T09:29:25.518Z,3.57
2018-06-01T09:31:28.704Z,1.80
2018-06-01T09:33:31.990Z,1.42
2018-06-01T09:35:35.959Z,1.55
2018-06-01T09:37:39.146Z,2.20
2018-06-01T09:39:42.402Z,1.60
2018-06-01T09:41:45.561Z,1.80
2018-06-01T09:43:48.752Z,4.40
2018-06-01T09:45:52.716Z,3.93
2018-06-01T09:47:55.880Z,2.30
2018-06-01T09:49:59.814Z,2.40
2018-06-01T09:52:03.740Z,1.87
2018-06-01T09:54:07.692Z,1.50
2018-06-01T09:56:10.859Z,2.50
2018-06-01T09:58:14.777Z,1.77
2018-06-01T10:00:18.731Z,2.53
2018-06-01T10:02:21.886Z,2.67
2018-06-01T10:04:25.073Z,9.60
2018-06-01T10:06:28.251Z,6.70
2018-06-01T10:08:33.605Z,3.10
2018-06-01T10:10:37.560Z,5.07
2018-06-01T10:12:40.718Z,2.53
2018-06-01T10:14:43.903Z,2.40
2018-06-01T10:16:47.067Z,2.00
2018-06-01T10:18:51.036Z,4.03
2018-06-01T10:20:54.971Z,3.00
2018-06-01T10:22:58.150Z,2.07
2018-06-01T10:25:01.328Z,2.17
2018-06-01T10:27:05.255Z,6.83
2018-06-01T10:29:09.181Z,2.93
2018-06-01T10:31:12.487Z,15.15
2018-06-01T10:33:16.417Z,8.02
2018-06-01T10:35:20.373Z,4.97
2018-06-01T10:37:23.565Z,4.43
2018-06-01T10:39:26.936Z,5.37
2018-06-01T10:41:30.926Z,3.70
2018-06-01T10:43:34.087Z,3.05
2018-06-01T10:45:38.037Z,4.10
2018-06-01T10:47:41.196Z,3.42
2018-06-01T10:49:44.419Z,4.95
2018-06-01T10:51:47.571Z,3.90
2018-06-01T10:53:50.820Z,3.17
2018-06-01T10:55:53.991Z,2.07
2018-06-01T10:57:57.152Z,2.50
2018-06-01T11:00:00.338Z,4.70
2018-06-01T11:02:03.525Z,4.80
2018-06-01T11:04:07.137Z,3.33
2018-06-01T11:06:10.320Z,3.27
2018-06-01T11:08:13.487Z,4.05
2018-06-01T11:10:16.686Z,3.08
2018-06-01T11:12:19.842Z,3.97
2018-06-01T11:14:23.040Z,2.15
2018-06-01T11:16:27.275Z,4.50
2018-06-01T11:18:30.421Z,6.53
2018-06-01T11:20:33.584Z,4.20
2018-06-01T11:22:36.766Z,3.50
2018-06-01T11:24:39.974Z,3.50
2018-06-01T11:26:43.152Z,2.90
2018-06-01T11:28:47.435Z,3.80
2018-06-01T11:30:50.655Z,3.20
2018-06-01T11:32:53.821Z,3.60
2018-06-01T11:34:57.035Z,2.78
2018-06-01T11:37:00.203Z,3.40
2018-06-01T11:39:03.355Z,3.43
2018-06-01T11:41:07.535Z,2.92
2018-06-01T11:43:11.493Z,5.33
2018-06-01T11:45:14.669Z,6.87
2018-06-01T11:47:19.148Z,3.62
2018-06-01T11:49:22.310Z,2.50
2018-06-01T11:51:26.307Z,2.80
2018-06-01T11:53:29.476Z,3.23
2018-06-01T11:55:32.658Z,4.70
2018-06-01T11:57:36.584Z,3.30
2018-06-01T11:59:40.511Z,4.33
2018-06-01T12:01:44.013Z,4.30
2018-06-01T12:03:47.871Z,5.22
2018-06-01T12:05:51.084Z,10.30
2018-06-01T12:07:54.315Z,13.02
2018-06-01T12:09:57.478Z,13.47
2018-06-01T12:12:01.439Z,5.57
2018-06-01T12:14:04.642Z,12.80
2018-06-01T12:16:08.081Z,11.23
2018-06-01T12:18:11.240Z,14.23
2018-06-01T12:20:14.441Z,5.10
2018-06-01T12:22:18.366Z,4.40
2018-06-01T12:24:22.285Z,3.60
2018-06-01T12:26:26.247Z,3.47
2018-06-01T12:28:29.411Z,7.90
2018-06-01T12:30:32.608Z,8.50
2018-06-01T12:32:35.761Z,7.10
2018-06-01T12:34:38.930Z,4.60
2018-06-01T12:36:42.130Z,4.72
2018-06-01T12:38:45.286Z,3.70
2018-06-01T12:40:48.453Z,3.03
2018-06-01T12:42:51.639Z,3.63
2018-06-01T12:44:55.563Z,4.45
2018-06-01T12:46:58.744Z,4.43
2018-06-01T12:49:01.908Z,4.70
2018-06-01T12:51:05.104Z,4.13
2018-06-01T12:53:08.328Z,2.87
2018-06-01T12:55:11.487Z,3.87
2018-06-01T12:57:14.670Z,5.33
2018-06-01T12:59:17.875Z,4.35
2018-06-01T13:01:21.076Z,4.28
2018-06-01T13:03:25.045Z,2.97
2018-06-01T13:05:28.569Z,3.30
2018-06-01T13:07:31.769Z,10.67
2018-06-01T13:09:34.927Z,9.68
2018-06-01T13:11:38.967Z,15.03
2018-06-01T13:13:42.879Z,6.20
2018-06-01T13:15:46.056Z,5.87
2018-06-01T13:17:49.279Z,6.80
2018-06-01T13:19:52.443Z,4.70
2018-06-01T13:21:55.628Z,4.47
2018-06-01T13:23:58.805Z,3.33
2018-06-01T13:26:02.153Z,3.43
2018-06-01T13:28:06.095Z,6.20
2018-06-01T13:30:09.259Z,7.10
2018-06-01T13:32:12.442Z,5.43
2018-06-01T13:34:15.604Z,4.10
2018-06-01T13:36:18.769Z,3.50
2018-06-01T13:38:21.959Z,3.40
2018-06-01T13:40:25.130Z,2.90
2018-06-01T13:42:28.797Z,2.67
2018-06-01T13:44:32.724Z,2.77
2018-06-01T13:46:36.674Z,2.27
2018-06-01T13:48:39.819Z,2.67
2018-06-01T13:50:43.031Z,2.13
2018-06-01T13:52:46.199Z,3.40
2018-06-01T13:54:49.364Z,10.03
2018-06-01T13:56:52.560Z,11.73
2018-06-01T13:58:55.716Z,6.78
2018-06-01T14:00:58.875Z,3.58
2018-06-01T14:03:02.063Z,2.43
2018-06-01T14:05:05.230Z,3.37
2018-06-01T14:07:09.059Z,1.97
2018-06-01T14:09:12.235Z,2.33
2018-06-01T14:11:15.414Z,2.08
2018-06-01T14:13:19.330Z,1.92
2018-06-01T14:15:23.283Z,1.70
2018-06-01T14:17:26.471Z,1.85
2018-06-01T14:19:30.398Z,1.73
2018-06-01T14:21:33.578Z,1.83
2018-06-01T14:23:37.520Z,1.65
2018-06-01T14:25:41.451Z,0.90
2018-06-01T14:27:45.409Z,1.30
2018-06-01T14:29:49.999Z,0.90
2018-06-01T14:31:53.191Z,2.80
2018-06-01T14:33:56.349Z,4.53
2018-06-01T14:35:59.537Z,3.77
2018-06-01T14:38:03.501Z,3.87
2018-06-01T14:40:06.655Z,3.83
2018-06-01T14:42:09.838Z,3.43
2018-06-01T14:44:13.764Z,1.77
2018-06-01T14:46:16.933Z,1.60
2018-06-01T14:48:20.107Z,1.20
2018-06-01T14:50:23.263Z,3.22
2018-06-01T14:52:26.486Z,1.50
2018-06-01T14:54:29.725Z,2.90
2018-06-01T14:56:32.877Z,1.67
2018-06-01T14:58:36.083Z,0.98
2018-06-01T15:00:39.240Z,2.90
2018-06-01T15:02:42.415Z,1.10
2018-06-01T15:04:45.576Z,0.95
2018-06-01T15:06:49.571Z,1.12
2018-06-01T15:08:52.748Z,1.23
2018-06-01T15:10:55.919Z,1.12
2018-06-01T15:12:59.104Z,0.50
2018-06-01T15:15:02.263Z,2.12
2018-06-01T15:17:06.237Z,0.67
2018-06-01T15:19:09.619Z,1.10
2018-06-01T15:21:12.795Z,0.50
2018-06-01T15:23:16.746Z,1.70
2018-06-01T15:25:19.900Z,1.85
2018-06-01T15:27:23.967Z,1.48
2018-06-01T15:29:27.891Z,0.60
2018-06-01T15:31:31.819Z,1.27
2018-06-01T15:33:35.768Z,0.60
2018-06-01T15:35:38.933Z,0.50
2018-06-01T15:37:43.384Z,0.60
2018-06-01T15:39:47.853Z,1.85
2018-06-01T15:41:51.056Z,0.43
2018-06-01T15:43:54.244Z,1.83
2018-06-01T15:45:58.171Z,0.50
2018-06-01T15:48:02.129Z,1.53
2018-06-01T15:50:05.330Z,0.47
2018-06-01T15:52:08.491Z,0.77
2018-06-01T15:54:11.694Z,1.70
2018-06-01T15:56:14.895Z,0.52
2018-06-01T15:58:18.086Z,0.65
2018-06-01T16:00:21.273Z,3.20
2018-06-01T16:02:24.470Z,1.70
2018-06-01T16:04:27.647Z,1.40
2018-06-01T16:06:31.594Z,0.93
2018-06-01T16:08:34.776Z,1.42
2018-06-01T16:10:38.724Z,2.15
2018-06-01T16:12:42.740Z,1.45
2018-06-01T16:14:45.878Z,2.05
2018-06-01T16:16:50.219Z,1.77
2018-06-01T16:18:53.408Z,1.80
2018-06-01T16:20:57.335Z,5.40
2018-06-01T16:23:01.296Z,7.57
2018-06-01T16:25:04.458Z,2.30
2018-06-01T16:27:08.390Z,1.60
2018-06-01T16:29:12.355Z,2.17
2018-06-01T16:31:15.539Z,1.50
2018-06-01T16:33:18.767Z,1.77
2018-06-01T16:35:21.916Z,2.40
2018-06-01T16:37:25.076Z,3.95
2018-06-01T16:39:28.496Z,3.20
2018-06-01T16:41:31.700Z,2.70
2018-06-01T16:43:34.881Z,1.80
2018-06-01T16:45:38.824Z,1.70
2018-06-01T16:47:41.979Z,1.50
2018-06-01T16:49:45.163Z,1.73
2018-06-01T16:51:48.319Z,1.20
2018-06-01T16:53:51.582Z,1.70
2018-06-01T16:55:54.745Z,2.40
2018-06-01T16:57:58.718Z,3.40
2018-06-01T17:00:01.973Z,2.75
2018-06-01T17:02:05.936Z,1.37
2018-06-01T17:04:09.135Z,0.67
2018-06-01T17:06:12.300Z,0.60
2018-06-01T17:08:15.476Z,2.10
2018-06-01T17:10:18.671Z,0.90
2018-06-01T17:12:21.843Z,1.17
2018-06-01T17:14:25.020Z,0.90
2018-06-01T17:16:28.200Z,0.60
2018-06-01T17:18:31.383Z,1.73
2018-06-01T17:20:35.809Z,1.20
2018-06-01T17:22:39.068Z,6.15
2018-06-01T17:24:42.241Z,3.00
2018-06-01T17:26:45.414Z,2.50
2018-06-01T17:28:48.737Z,2.12
2018-06-01T17:30:52.933Z,2.37
2018-06-01T17:32:56.185Z,4.53
2018-06-01T17:35:00.216Z,3.00
2018-06-01T17:37:04.250Z,3.10
2018-06-01T17:39:08.176Z,2.40
2018-06-01T17:41:11.653Z,4.07
2018-06-01T17:43:14.985Z,4.60
2018-06-01T17:45:18.178Z,3.75
2018-06-01T17:47:21.344Z,3.57
2018-06-01T17:49:24.633Z,3.67
2018-06-01T17:51:27.946Z,3.77
2018-06-01T17:53:31.847Z,9.65
2018-06-01T17:55:35.034Z,4.37
2018-06-01T17:57:38.197Z,8.50
2018-06-01T17:59:41.383Z,5.60
2018-06-01T18:01:44.536Z,3.63
2018-06-01T18:03:47.753Z,6.65
2018-06-01T18:05:52.186Z,9.77
2018-06-01T18:07:55.521Z,9.90
2018-06-01T18:09:58.860Z,7.93
2018-06-01T18:12:02.088Z,9.23
2018-06-01T18:14:06.065Z,4.60
2018-06-01T18:16:09.283Z,4.67
2018-06-01T18:18:13.054Z,7.03
2018-06-01T18:20:17.968Z,4.27
2018-06-01T18:22:22.964Z,3.15
2018-06-01T18:24:27.482Z,2.87
2018-06-01T18:26:34.017Z,3.17
2018-06-01T18:28:38.569Z,2.90
2018-06-01T18:30:42.945Z,4.03
2018-06-01T18:32:47.454Z,2.53
2018-06-01T18:34:51.815Z,4.77
2018-06-01T18:36:56.137Z,4.13
2018-06-01T18:38:59.379Z,6.78
2018-06-01T18:41:02.568Z,3.60
2018-06-01T18:43:07.621Z,4.47
2018-06-01T18:45:11.966Z,7.37
2018-06-01T18:47:16.242Z,6.10
2018-06-01T18:49:20.565Z,3.17
2018-06-01T18:51:24.008Z,9.37
2018-06-01T18:53:27.171Z,5.67
2018-06-01T18:55:30.354Z,6.15
2018-06-01T18:57:35.484Z,5.30
2018-06-01T18:59:39.692Z,5.10
2018-06-01T19:01:45.048Z,5.00
2018-06-01T19:03:50.253Z,4.65
2018-06-01T19:05:54.686Z,7.27
2018-06-01T19:08:00.705Z,13.50
2018-06-01T19:10:07.039Z,7.30
2018-06-01T19:12:12.200Z,4.45
2018-06-01T19:14:16.609Z,2.77
2018-06-01T19:16:19.871Z,11.68
2018-06-01T19:18:25.024Z,4.32
2018-06-01T19:20:29.151Z,8.40
2018-06-01T19:22:33.613Z,12.10
2018-06-01T19:24:38.154Z,4.10
2018-06-01T19:26:41.836Z,7.83
2018-06-01T19:28:45.004Z,5.40
2018-06-01T19:30:48.399Z,3.97
2018-06-01T19:32:52.478Z,6.70
2018-06-01T19:34:56.246Z,4.30
2018-06-01T19:36:59.533Z,3.40
2018-06-01T19:39:02.745Z,4.93
2018-06-01T19:41:06.958Z,14.63
2018-06-01T19:43:10.285Z,6.90
2018-06-01T19:45:13.449Z,4.40
2018-06-01T19:47:17.406Z,5.20
2018-06-01T19:49:21.626Z,5.23
2018-06-01T19:51:24.953Z,18.00
2018-06-01T19:53:29.074Z,6.40
2018-06-01T19:55:33.455Z,10.77
2018-06-01T19:57:37.063Z,13.67
2018-06-01T19:59:40.949Z,7.37
2018-06-01T20:01:45.040Z,2.80
2018-06-01T20:03:49.919Z,2.47
2018-06-01T20:05:54.217Z,3.37
2018-06-01T20:07:57.801Z,2.90
2018-06-01T20:10:00.952Z,3.25
2018-06-01T20:12:05.011Z,3.43
2018-06-01T20:14:09.277Z,2.80
2018-06-01T20:16:13.538Z,3.50
2018-06-01T20:18:16.917Z,2.93
2018-06-01T20:20:20.139Z,3.90
2018-06-01T20:22:23.350Z,5.23
2018-06-01T20:24:27.427Z,11.65
2018-06-01T20:26:30.742Z,8.83
2018-06-01T20:28:36.660Z,3.67
2018-06-01T20:30:40.951Z,2.77
2018-06-01T20:32:44.348Z,2.97
2018-06-01T20:34:47.527Z,4.18
2018-06-01T20:36:50.753Z,6.97
2018-06-01T20:38:53.975Z,10.97
2018-06-01T20:40:57.890Z,5.13
2018-06-01T20:43:01.883Z,4.35
2018-06-01T20:45:05.032Z,3.22
2018-06-01T20:47:08.209Z,4.13
2018-06-01T20:49:11.483Z,4.87
2018-06-01T20:51:16.515Z,6.90
2018-06-01T20:53:20.461Z,3.63
2018-06-01T20:55:23.617Z,3.80
2018-06-01T20:57:26.813Z,4.57
2018-06-01T20:59:29.977Z,5.93
2018-06-01T21:01:33.896Z,8.23
2018-06-01T21:03:37.856Z,7.27
2018-06-01T21:05:41.012Z,4.60
2018-06-01T21:07:44.215Z,4.57
2018-06-01T21:09:48.249Z,6.77
2018-06-01T21:11:52.968Z,4.60
2018-06-01T21:13:57.223Z,3.30
2018-06-01T21:16:00.863Z,6.27
2018-06-01T21:18:04.110Z,5.68
2018-06-01T21:20:07.275Z,3.58
2018-06-01T21:22:11.220Z,4.30
2018-06-01T21:24:14.417Z,4.33
2018-06-01T21:26:18.419Z,3.57
2018-06-01T21:28:21.635Z,3.23
2018-06-01T21:30:24.790Z,7.23
2018-06-01T21:32:27.955Z,3.50
2018-06-01T21:34:31.619Z,2.87
2018-06-01T21:36:35.181Z,7.40
2018-06-01T21:38:38.420Z,7.50
2018-06-01T21:40:42.377Z,9.90
2018-06-01T21:42:47.653Z,14.80
2018-06-01T21:44:50.908Z,13.07
2018-06-01T21:46:54.904Z,6.87
2018-06-01T21:48:59.038Z,12.83
2018-06-01T21:51:02.582Z,10.17
2018-06-01T21:53:06.212Z,5.47
2018-06-01T21:55:09.427Z,17.70
2018-06-01T21:57:12.591Z,6.93
2018-06-01T21:59:18.058Z,15.50
2018-06-01T22:01:21.231Z,16.17
2018-06-01T22:03:24.417Z,6.90
2018-06-01T22:05:28.674Z,16.07
2018-06-01T22:07:31.855Z,5.97
2018-06-01T22:09:36.055Z,12.10
2018-06-01T22:11:39.262Z,5.53
2018-06-01T22:13:44.757Z,4.50
2018-06-01T22:15:48.972Z,5.87
2018-06-01T22:17:52.291Z,4.47
2018-06-01T22:19:57.369Z,12.03
2018-06-01T22:22:02.574Z,18.13
2018-06-01T22:24:06.542Z,9.90
2018-06-01T22:26:10.192Z,13.23
2018-06-01T22:28:14.695Z,8.50
2018-06-01T22:30:20.212Z,4.17
2018-06-01T22:32:23.468Z,3.53
2018-06-01T22:34:27.748Z,9.23
2018-06-01T22:36:31.916Z,6.25
2018-06-01T22:38:36.123Z,4.90
2018-06-01T22:40:39.339Z,4.23
2018-06-01T22:42:43.263Z,9.48
2018-06-01T22:44:47.319Z,17.03
2018-06-01T22:46:51.430Z,10.00
2018-06-01T22:48:55.088Z,13.57
2018-06-01T22:50:58.251Z,12.30
2018-06-01T22:53:03.090Z,7.18
2018-06-01T22:55:06.994Z,9.25
2018-06-01T22:57:10.745Z,6.20
2018-06-01T22:59:15.386Z,11.67
2018-06-01T23:01:19.967Z,12.83
2018-06-01T23:03:23.716Z,4.87
2018-06-01T23:05:27.554Z,3.25
2018-06-01T23:07:30.743Z,10.47
2018-06-01T23:09:34.701Z,7.40
2018-06-01T23:11:38.639Z,12.37
2018-06-01T23:13:43.116Z,4.73
2018-06-01T23:15:46.906Z,3.80
2018-06-01T23:17:51.413Z,11.20
2018-06-01T23:19:55.196Z,7.95
2018-06-01T23:21:58.375Z,4.13
2018-06-01T23:24:02.295Z,4.72
2018-06-01T23:26:06.907Z,4.05
2018-06-01T23:28:10.089Z,4.27
2018-06-01T23:30:13.939Z,5.18
2018-06-01T23:32:17.910Z,3.30
2018-06-01T23:34:22.439Z,5.57
2018-06-01T23:36:26.387Z,6.85
2018-06-01T23:38:30.109Z,5.43
2018-06-01T23:40:33.287Z,5.07
2018-06-01T23:42:37.342Z,6.93
2018-06-01T23:44:41.224Z,5.23
2018-06-01T23:46:44.985Z,4.15
2018-06-01T23:48:48.849Z,8.93
2018-06-01T23:50:52.691Z,3.20
2018-06-01T23:52:56.444Z,6.10
2018-06-01T23:55:00.266Z,6.57
2018-06-01T23:57:04.016Z,5.18
2018-06-01T23:59:07.704Z,3.60
